createdAt,value
2019-02-20T00:00:26.180Z,41.50
2019-02-20T00:02:54.758Z,41.60
2019-02-20T00:05:23.374Z,41.50
2019-02-20T00:07:51.828Z,41.80
2019-02-20T00:10:20.410Z,41.70
2019-02-20T00:12:48.997Z,41.70
2019-02-20T00:15:17.539Z,41.80
2019-02-20T00:17:46.456Z,41.60
2019-02-20T00:20:14.911Z,41.60
2019-02-20T00:22:43.370Z,41.50
2019-02-20T00:25:11.899Z,41.50
2019-02-20T00:27:40.398Z,41.40
2019-02-20T00:30:10.667Z,41.60
2019-02-20T00:32:39.128Z,41.40
2019-02-20T00:35:07.614Z,40.50
2019-02-20T00:37:36.088Z,40.40
2019-02-20T00:40:07.807Z,40.30
2019-02-20T00:42:36.332Z,40.60
2019-02-20T00:45:17.961Z,40.60
2019-02-20T00:47:48.074Z,40.80
2019-02-20T00:50:17.132Z,40.90
2019-02-20T00:52:49.782Z,41.00
2019-02-20T00:55:17.441Z,41.20
2019-02-20T00:57:45.905Z,41.20
2019-02-20T01:00:15.719Z,41.40
2019-02-20T01:02:44.328Z,41.40
2019-02-20T01:05:12.788Z,41.50
2019-02-20T01:07:41.270Z,41.50
2019-02-20T01:10:09.763Z,41.60
2019-02-20T01:12:38.299Z,41.60
2019-02-20T01:15:11.197Z,41.70
2019-02-20T01:17:41.519Z,41.80
2019-02-20T01:20:10.511Z,41.60
2019-02-20T01:22:38.975Z,41.60
2019-02-20T01:25:07.604Z,41.50
2019-02-20T01:27:36.109Z,41.50
2019-02-20T01:30:07.509Z,41.50
2019-02-20T01:32:35.968Z,41.50
2019-02-20T01:35:04.782Z,41.50
2019-02-20T01:37:33.333Z,41.50
2019-02-20T01:40:01.807Z,41.60
2019-02-20T01:42:30.276Z,41.60
2019-02-20T01:44:58.774Z,41.60
2019-02-20T01:47:27.591Z,41.60
2019-02-20T01:49:56.056Z,41.60
2019-02-20T01:52:24.586Z,41.80
2019-02-20T01:54:53.062Z,41.60
2019-02-20T01:57:21.577Z,40.40
2019-02-20T01:59:50.036Z,40.10
2019-02-20T02:02:18.485Z,40.10
2019-02-20T02:04:46.983Z,40.30
2019-02-20T02:07:15.448Z,40.50
2019-02-20T02:09:43.978Z,40.40
2019-02-20T02:12:12.436Z,40.50
2019-02-20T02:14:40.933Z,40.50
2019-02-20T02:17:09.761Z,40.60
2019-02-20T02:19:38.228Z,40.70
2019-02-20T02:22:06.693Z,40.60
2019-02-20T02:24:35.262Z,40.60
2019-02-20T02:27:03.723Z,40.70
2019-02-20T02:29:32.207Z,40.70
2019-02-20T02:32:00.711Z,40.70
2019-02-20T02:34:29.182Z,41.20
2019-02-20T02:36:57.676Z,41.20
2019-02-20T02:39:26.216Z,41.10
2019-02-20T02:41:54.775Z,41.20
2019-02-20T02:44:23.338Z,41.40
2019-02-20T02:46:52.029Z,41.30
2019-02-20T02:49:21.478Z,41.30
2019-02-20T02:51:50.198Z,41.30
2019-02-20T02:54:18.676Z,41.40
2019-02-20T02:56:47.316Z,41.40
2019-02-20T02:59:15.810Z,41.30
2019-02-20T03:01:44.478Z,41.40
2019-02-20T03:04:13.170Z,41.40
2019-02-20T03:06:41.852Z,41.40
2019-02-20T03:09:10.336Z,41.50
2019-02-20T03:11:38.972Z,41.40
2019-02-20T03:14:07.508Z,41.60
2019-02-20T03:16:35.967Z,41.50
2019-02-20T03:19:04.501Z,41.60
2019-02-20T03:21:32.975Z,40.90
2019-02-20T03:24:02.572Z,40.60
2019-02-20T03:26:31.175Z,40.60
2019-02-20T03:28:59.668Z,40.70
2019-02-20T03:31:28.575Z,40.70
2019-02-20T03:33:57.134Z,40.80
2019-02-20T03:36:26.662Z,40.80
2019-02-20T03:38:55.555Z,40.70
2019-02-20T03:41:24.330Z,40.70
2019-02-20T03:43:52.945Z,40.70
2019-02-20T03:46:21.612Z,40.80
2019-02-20T03:48:51.901Z,40.80
2019-02-20T03:51:20.381Z,40.80
2019-02-20T03:53:51.943Z,40.90
2019-02-20T03:56:18.987Z,40.80
2019-02-20T03:58:47.509Z,40.90
2019-02-20T04:01:15.992Z,40.80
2019-02-20T04:03:45.780Z,40.90
2019-02-20T04:06:14.488Z,40.80
2019-02-20T04:08:43.143Z,40.80
2019-02-20T04:11:11.728Z,40.80
2019-02-20T04:13:40.303Z,40.90
2019-02-20T04:16:08.888Z,40.80
2019-02-20T04:18:37.909Z,40.80
2019-02-20T04:21:06.593Z,40.80
2019-02-20T04:23:35.048Z,40.80
2019-02-20T04:26:03.662Z,40.80
2019-02-20T04:28:32.314Z,40.80
2019-02-20T04:31:01.031Z,40.80
2019-02-20T04:33:31.664Z,40.80
2019-02-20T04:35:59.908Z,40.80
2019-02-20T04:38:28.622Z,40.80
2019-02-20T04:40:57.227Z,40.80
2019-02-20T04:43:25.757Z,40.80
2019-02-20T04:45:54.360Z,40.80
2019-02-20T04:48:22.934Z,40.90
2019-02-20T04:50:51.414Z,40.90
2019-02-20T04:53:20.068Z,40.90
2019-02-20T04:55:48.814Z,40.90
2019-02-20T04:58:19.142Z,40.90
2019-02-20T05:00:47.584Z,40.90
2019-02-20T05:03:17.181Z,41.00
2019-02-20T05:05:46.014Z,41.00
2019-02-20T05:08:15.773Z,41.10
2019-02-20T05:10:44.681Z,41.00
2019-02-20T05:13:13.298Z,41.00
2019-02-20T05:15:41.851Z,41.00
2019-02-20T05:18:10.434Z,40.90
2019-02-20T05:20:39.336Z,41.00
2019-02-20T05:23:09.668Z,40.90
2019-02-20T05:25:39.100Z,41.10
2019-02-20T05:28:07.873Z,41.00
2019-02-20T05:30:39.798Z,41.00
2019-02-20T05:33:09.332Z,41.10
2019-02-20T05:35:37.886Z,41.00
2019-02-20T05:38:06.910Z,41.10
2019-02-20T05:40:35.601Z,41.00
2019-02-20T05:43:04.158Z,41.10
2019-02-20T05:45:33.034Z,41.20
2019-02-20T05:48:01.502Z,41.10
2019-02-20T05:50:30.073Z,41.20
2019-02-20T05:52:58.613Z,41.20
2019-02-20T05:55:27.612Z,41.30
2019-02-20T05:57:56.133Z,41.20
2019-02-20T06:00:24.669Z,41.20
2019-02-20T06:02:53.129Z,42.00
2019-02-20T06:05:21.628Z,41.40
2019-02-20T06:07:50.106Z,41.40
2019-02-20T06:10:18.621Z,41.40
2019-02-20T06:12:47.100Z,41.40
2019-02-20T06:15:15.577Z,41.40
2019-02-20T06:17:44.087Z,41.40
2019-02-20T06:20:12.983Z,41.40
2019-02-20T06:22:41.474Z,42.10
2019-02-20T06:25:10.053Z,41.50
2019-02-20T06:27:38.494Z,41.60
2019-02-20T06:30:10.146Z,41.60
2019-02-20T06:32:39.104Z,41.70
2019-02-20T06:35:07.788Z,41.60
2019-02-20T06:37:36.334Z,41.60
2019-02-20T06:40:07.578Z,41.60
2019-02-20T06:42:36.199Z,42.30
2019-02-20T06:45:07.696Z,41.60
2019-02-20T06:47:36.304Z,41.60
2019-02-20T06:50:07.391Z,41.60
2019-02-20T06:52:35.863Z,41.70
2019-02-20T06:55:06.978Z,41.60
2019-02-20T06:57:35.428Z,41.60
2019-02-20T07:00:04.679Z,42.30
2019-02-20T07:02:33.191Z,41.60
2019-02-20T07:05:30.513Z,41.50
2019-02-20T07:08:18.746Z,41.50
2019-02-20T07:11:09.483Z,41.50
2019-02-20T07:13:41.265Z,41.50
2019-02-20T07:16:15.592Z,41.50
2019-02-20T07:18:50.198Z,41.50
2019-02-20T07:21:40.390Z,41.50
2019-02-20T07:24:12.453Z,41.50
2019-02-20T07:26:52.877Z,41.50
2019-02-20T07:29:27.618Z,41.50
2019-02-20T07:31:56.079Z,41.50
2019-02-20T07:34:24.537Z,41.50
2019-02-20T07:36:53.061Z,41.70
2019-02-20T07:39:21.522Z,41.60
2019-02-20T07:41:50.131Z,41.60
2019-02-20T07:44:18.595Z,41.60
2019-02-20T07:46:47.056Z,41.60
2019-02-20T07:49:15.549Z,41.60
2019-02-20T07:51:44.199Z,41.60
2019-02-20T07:54:12.665Z,41.60
2019-02-20T07:56:41.180Z,41.60
2019-02-20T07:59:09.665Z,41.60
2019-02-20T08:01:38.272Z,41.60
2019-02-20T08:04:06.786Z,41.70
2019-02-20T08:06:35.345Z,41.70
2019-02-20T08:09:06.047Z,41.70
2019-02-20T08:11:34.970Z,41.80
2019-02-20T08:14:03.584Z,41.90
2019-02-20T08:16:32.057Z,41.80
2019-02-20T08:19:01.892Z,41.80
2019-02-20T08:21:30.658Z,41.80
2019-02-20T08:23:59.188Z,41.80
2019-02-20T08:26:27.757Z,41.80
2019-02-20T08:28:56.819Z,41.80
2019-02-20T08:31:25.291Z,42.60
2019-02-20T08:33:53.795Z,41.90
2019-02-20T08:36:22.282Z,42.00
2019-02-20T08:38:50.755Z,41.90
2019-02-20T08:41:19.271Z,42.00
2019-02-20T08:43:47.747Z,42.00
2019-02-20T08:46:16.219Z,42.10
2019-02-20T08:48:44.744Z,42.00
2019-02-20T08:51:13.242Z,41.90
2019-02-20T08:53:41.726Z,41.90
2019-02-20T08:56:10.204Z,42.00
2019-02-20T08:58:38.789Z,41.90
2019-02-20T09:01:07.382Z,42.00
2019-02-20T09:03:35.865Z,42.10
2019-02-20T09:06:04.362Z,42.10
2019-02-20T09:08:32.853Z,42.10
2019-02-20T09:11:01.465Z,42.20
2019-02-20T09:13:29.925Z,42.10
2019-02-20T09:15:58.468Z,42.10
2019-02-20T09:18:27.014Z,42.10
2019-02-20T09:20:55.472Z,42.10
2019-02-20T09:23:24.495Z,42.10
2019-02-20T09:25:52.972Z,42.80
2019-02-20T09:28:21.623Z,42.20
2019-02-20T09:30:50.077Z,42.10
2019-02-20T09:33:18.592Z,42.20
2019-02-20T09:35:47.076Z,42.20
2019-02-20T09:38:15.599Z,42.20
2019-02-20T09:40:44.081Z,42.20
2019-02-20T09:43:14.122Z,42.20
2019-02-20T09:45:44.506Z,42.20
2019-02-20T09:48:12.781Z,42.20
2019-02-20T09:50:41.268Z,42.30
2019-02-20T09:53:09.752Z,42.20
2019-02-20T09:55:38.576Z,42.20
2019-02-20T09:58:07.134Z,42.20
2019-02-20T10:00:35.945Z,42.20
2019-02-20T10:03:04.631Z,42.20
2019-02-20T10:05:33.055Z,42.20
2019-02-20T10:08:01.668Z,42.20
2019-02-20T10:10:30.482Z,42.30
2019-02-20T10:12:59.071Z,42.20
2019-02-20T10:15:27.540Z,42.20
2019-02-20T10:17:56.050Z,42.20
2019-02-20T10:20:24.515Z,42.20
2019-02-20T10:22:53.195Z,42.20
2019-02-20T10:25:21.654Z,42.20
2019-02-20T10:27:50.160Z,42.20
2019-02-20T10:30:21.973Z,42.20
2019-02-20T10:32:50.472Z,42.20
2019-02-20T10:35:18.979Z,42.20
2019-02-20T10:37:47.451Z,42.20
2019-02-20T10:40:15.968Z,42.20
2019-02-20T10:42:44.446Z,42.20
2019-02-20T10:45:13.655Z,42.20
2019-02-20T10:47:42.260Z,42.20
2019-02-20T10:50:12.380Z,42.20
2019-02-20T10:52:40.864Z,42.30
2019-02-20T10:55:10.170Z,42.20
2019-02-20T10:57:39.099Z,42.20
2019-02-20T11:00:23.143Z,42.20
2019-02-20T11:02:42.923Z,42.20
2019-02-20T11:05:11.610Z,42.20
2019-02-20T11:07:40.030Z,42.20
2019-02-20T11:10:09.475Z,42.20
2019-02-20T11:12:38.009Z,42.30
2019-02-20T11:15:08.016Z,42.20
2019-02-20T11:17:37.255Z,42.20
2019-02-20T11:20:09.367Z,42.20
2019-02-20T11:22:39.721Z,42.20
2019-02-20T11:25:10.704Z,42.20
2019-02-20T11:27:39.626Z,42.30
2019-02-20T11:30:25.651Z,42.20
2019-02-20T11:32:54.260Z,42.20
2019-02-20T11:35:22.703Z,42.30
2019-02-20T11:37:51.179Z,42.30
2019-02-20T11:40:19.768Z,42.20
2019-02-20T11:42:48.302Z,42.40
2019-02-20T11:45:17.747Z,42.30
2019-02-20T11:47:46.277Z,42.30
2019-02-20T11:50:14.754Z,42.20
2019-02-20T11:52:43.264Z,42.10
2019-02-20T11:55:14.044Z,42.10
2019-02-20T11:57:42.524Z,42.10
2019-02-20T12:00:15.957Z,42.30
2019-02-20T12:02:44.611Z,42.60
2019-02-20T12:05:13.377Z,42.90
2019-02-20T12:07:41.862Z,43.20
2019-02-20T12:10:13.075Z,43.20
2019-02-20T12:12:41.704Z,43.50
2019-02-20T12:15:10.423Z,44.00
2019-02-20T12:17:39.038Z,43.40
2019-02-20T12:20:09.181Z,43.90
2019-02-20T12:22:37.807Z,43.60
2019-02-20T12:25:08.140Z,43.50
2019-02-20T12:27:36.670Z,43.50
2019-02-20T12:30:12.760Z,43.30
2019-02-20T12:32:41.264Z,43.80
2019-02-20T12:35:09.820Z,43.80
2019-02-20T12:37:38.419Z,43.60
2019-02-20T12:40:09.140Z,43.60
2019-02-20T12:42:37.879Z,43.60
2019-02-20T12:45:11.605Z,43.40
2019-02-20T12:47:40.194Z,43.30
2019-02-20T12:50:14.057Z,43.20
2019-02-20T12:52:42.629Z,43.00
2019-02-20T12:55:11.414Z,42.80
2019-02-20T12:57:40.060Z,42.80
2019-02-20T13:00:11.585Z,42.80
2019-02-20T13:02:40.186Z,42.80
2019-02-20T13:05:09.034Z,42.80
2019-02-20T13:07:37.566Z,42.90
2019-02-20T13:10:07.636Z,42.80
2019-02-20T13:12:36.204Z,43.10
2019-02-20T13:15:07.647Z,42.90
2019-02-20T13:17:36.324Z,43.10
2019-02-20T13:20:06.738Z,43.50
2019-02-20T13:22:35.241Z,43.30
2019-02-20T13:25:04.209Z,43.40
2019-02-20T13:27:32.913Z,43.10
2019-02-20T13:30:01.431Z,42.90
2019-02-20T13:32:30.384Z,43.10
2019-02-20T13:34:58.962Z,42.80
2019-02-20T13:37:27.534Z,43.90
2019-02-20T13:39:56.595Z,42.80
2019-02-20T13:42:25.166Z,42.90
2019-02-20T13:44:53.940Z,43.00
2019-02-20T13:47:22.827Z,42.80
2019-02-20T13:49:51.567Z,42.80
2019-02-20T13:52:20.015Z,42.80
2019-02-20T13:54:48.581Z,42.80
2019-02-20T13:57:17.484Z,42.90
2019-02-20T13:59:46.048Z,43.20
2019-02-20T14:02:14.507Z,43.10
2019-02-20T14:04:43.019Z,43.40
2019-02-20T14:07:11.637Z,43.30
2019-02-20T14:09:40.221Z,43.40
2019-02-20T14:12:08.713Z,43.70
2019-02-20T14:14:37.481Z,43.50
2019-02-20T14:17:06.169Z,43.50
2019-02-20T14:19:34.841Z,43.50
2019-02-20T14:22:03.802Z,43.50
2019-02-20T14:24:32.297Z,43.50
2019-02-20T14:27:00.923Z,43.70
2019-02-20T14:29:29.531Z,43.60
2019-02-20T14:31:58.039Z,43.60
2019-02-20T14:34:26.652Z,43.60
2019-02-20T14:36:55.229Z,43.70
2019-02-20T14:39:23.829Z,43.80
2019-02-20T14:41:52.298Z,43.50
2019-02-20T14:44:20.833Z,43.50
2019-02-20T14:46:49.912Z,43.50
2019-02-20T14:49:18.521Z,43.60
2019-02-20T14:51:47.010Z,43.70
2019-02-20T14:54:15.482Z,44.10
2019-02-20T14:56:43.976Z,43.80
2019-02-20T14:59:12.497Z,43.80
2019-02-20T15:01:41.017Z,43.80
2019-02-20T15:04:09.970Z,43.80
2019-02-20T15:06:38.465Z,43.70
2019-02-20T15:09:07.016Z,43.60
2019-02-20T15:11:35.520Z,43.60
2019-02-20T15:14:04.052Z,43.60
2019-02-20T15:16:32.564Z,43.60
2019-02-20T15:19:01.200Z,43.50
2019-02-20T15:21:29.652Z,43.50
2019-02-20T15:23:58.161Z,43.50
2019-02-20T15:26:26.689Z,43.50
2019-02-20T15:28:55.281Z,43.50
2019-02-20T15:31:32.933Z,43.50
2019-02-20T15:33:55.516Z,43.40
2019-02-20T15:36:24.540Z,43.40
2019-02-20T15:38:53.012Z,43.40
2019-02-20T15:41:21.526Z,43.40
2019-02-20T15:43:51.529Z,43.30
2019-02-20T15:46:20.152Z,43.40
2019-02-20T15:48:48.657Z,43.30
2019-02-20T15:51:17.179Z,43.30
2019-02-20T15:53:45.761Z,43.20
2019-02-20T15:56:14.357Z,43.20
2019-02-20T15:58:42.862Z,43.20
2019-02-20T16:01:11.645Z,43.10
2019-02-20T16:03:40.350Z,43.10
2019-02-20T16:06:08.864Z,43.10
2019-02-20T16:08:37.698Z,43.10
2019-02-20T16:11:06.168Z,43.00
2019-02-20T16:13:34.678Z,43.10
2019-02-20T16:16:03.248Z,42.90
2019-02-20T16:18:31.725Z,42.90
2019-02-20T16:21:00.618Z,42.90
2019-02-20T16:23:29.066Z,43.00
2019-02-20T16:25:58.232Z,43.10
2019-02-20T16:28:33.561Z,43.00
2019-02-20T16:30:56.916Z,43.10
2019-02-20T16:33:25.402Z,43.00
2019-02-20T16:35:53.931Z,43.10
2019-02-20T16:38:22.491Z,43.00
2019-02-20T16:40:51.007Z,43.00
2019-02-20T16:43:19.955Z,43.10
2019-02-20T16:45:48.902Z,43.20
2019-02-20T16:48:17.373Z,43.10
2019-02-20T16:50:45.972Z,43.20
2019-02-20T16:53:14.434Z,43.00
2019-02-20T16:55:42.946Z,43.20
2019-02-20T16:58:11.480Z,43.10
2019-02-20T17:00:39.963Z,43.10
2019-02-20T17:03:11.730Z,43.10
2019-02-20T17:05:40.219Z,43.00
2019-02-20T17:08:08.783Z,42.90
2019-02-20T17:10:37.289Z,42.70
2019-02-20T17:13:05.875Z,42.90
2019-02-20T17:15:34.699Z,42.80
2019-02-20T17:18:03.297Z,42.90
2019-02-20T17:20:31.826Z,43.00
2019-02-20T17:23:00.331Z,43.20
2019-02-20T17:25:28.812Z,43.40
2019-02-20T17:28:05.568Z,43.60
2019-02-20T17:30:27.554Z,43.60
2019-02-20T17:32:56.051Z,43.50
2019-02-20T17:35:24.556Z,43.50
2019-02-20T17:37:53.072Z,43.50
2019-02-20T17:40:21.566Z,43.60
2019-02-20T17:42:50.052Z,43.60
2019-02-20T17:45:19.286Z,43.90
2019-02-20T17:47:48.570Z,43.80
2019-02-20T17:50:22.511Z,44.00
2019-02-20T17:52:51.032Z,44.20
2019-02-20T17:55:19.492Z,44.10
2019-02-20T17:57:48.374Z,44.20
2019-02-20T18:00:19.222Z,44.20
2019-02-20T18:02:48.117Z,44.40
2019-02-20T18:05:16.603Z,44.50
2019-02-20T18:07:49.805Z,44.50
2019-02-20T18:10:15.231Z,44.50
2019-02-20T18:12:43.875Z,44.60
2019-02-20T18:15:13.649Z,44.40
2019-02-20T18:17:42.261Z,44.60
2019-02-20T18:20:11.486Z,44.50
2019-02-20T18:22:40.015Z,44.00
2019-02-20T18:25:10.254Z,44.60
2019-02-20T18:27:38.841Z,44.70
2019-02-20T18:30:12.837Z,44.70
2019-02-20T18:32:41.471Z,44.70
2019-02-20T18:35:12.450Z,44.70
2019-02-20T18:37:41.161Z,44.80
2019-02-20T18:40:12.101Z,44.70
2019-02-20T18:42:40.660Z,44.70
2019-02-20T18:45:11.550Z,44.80
2019-02-20T18:47:40.094Z,44.80
2019-02-20T18:50:11.253Z,44.90
2019-02-20T18:52:39.740Z,44.80
2019-02-20T18:55:14.646Z,51.00
2019-02-20T18:57:43.192Z,44.70
2019-02-20T19:00:21.435Z,41.40
2019-02-20T19:02:50.231Z,42.60
2019-02-20T19:05:19.397Z,43.20
2019-02-20T19:07:48.090Z,43.60
2019-02-20T19:10:37.746Z,43.90
2019-02-20T19:13:18.641Z,44.00
2019-02-20T19:15:53.324Z,44.20
2019-02-20T19:18:47.814Z,44.30
2019-02-20T19:21:36.430Z,44.40
2019-02-20T19:24:20.492Z,44.30
2019-02-20T19:26:55.221Z,44.20
2019-02-20T19:29:43.600Z,44.40
2019-02-20T19:32:30.434Z,44.50
2019-02-20T19:35:28.028Z,44.50
2019-02-20T19:38:23.597Z,44.50
2019-02-20T19:41:07.393Z,44.60
2019-02-20T19:43:41.935Z,44.80
2019-02-20T19:46:22.044Z,44.80
2019-02-20T19:48:59.597Z,44.80
2019-02-20T19:51:34.251Z,44.80
2019-02-20T19:54:18.303Z,44.90
2019-02-20T19:56:59.298Z,44.80
2019-02-20T19:59:37.093Z,44.90
2019-02-20T20:02:27.823Z,44.90
2019-02-20T20:05:19.320Z,44.90
2019-02-20T20:08:07.541Z,44.90
2019-02-20T20:10:50.604Z,45.00
2019-02-20T20:13:25.094Z,44.90
2019-02-20T20:16:05.941Z,45.00
2019-02-20T20:18:43.478Z,45.00
2019-02-20T20:21:20.913Z,45.00
2019-02-20T20:24:01.710Z,45.00
2019-02-20T20:27:03.837Z,45.00
2019-02-20T20:29:39.964Z,45.10
2019-02-20T20:32:33.850Z,44.00
2019-02-20T20:35:31.456Z,42.10
2019-02-20T20:38:11.915Z,42.10
2019-02-20T20:41:03.403Z,43.20
2019-02-20T20:43:35.132Z,43.40
2019-02-20T20:46:12.950Z,43.90
2019-02-20T20:49:01.307Z,44.10
2019-02-20T20:51:38.597Z,44.30
2019-02-20T20:54:26.661Z,44.50
2019-02-20T20:57:13.609Z,44.50
2019-02-20T20:59:48.130Z,44.70
2019-02-20T21:02:22.695Z,44.80
2019-02-20T21:04:57.482Z,44.80
2019-02-20T21:07:56.613Z,44.80
2019-02-20T21:10:46.651Z,44.90
2019-02-20T21:13:35.112Z,44.90
2019-02-20T21:16:28.113Z,44.90
2019-02-20T21:19:08.809Z,44.90
2019-02-20T21:21:43.116Z,44.20
2019-02-20T21:24:26.927Z,44.60
2019-02-20T21:27:29.122Z,44.40
2019-02-20T21:30:00.886Z,44.40
2019-02-20T21:32:52.205Z,44.70
2019-02-20T21:35:29.752Z,44.50
2019-02-20T21:38:04.170Z,44.40
2019-02-20T21:40:39.501Z,44.70
2019-02-20T21:43:41.440Z,43.50
2019-02-20T21:46:32.651Z,42.30
2019-02-20T21:49:24.680Z,42.60
2019-02-20T21:52:16.090Z,43.20
2019-02-20T21:55:21.272Z,42.90
2019-02-20T21:58:01.553Z,42.90
2019-02-20T22:00:38.992Z,43.10
2019-02-20T22:03:10.784Z,43.10
2019-02-20T22:05:42.552Z,43.20
2019-02-20T22:08:32.543Z,43.30
2019-02-20T22:11:24.393Z,43.30
2019-02-20T22:14:19.215Z,43.30
2019-02-20T22:17:18.302Z,43.30
2019-02-20T22:19:56.168Z,43.30
2019-02-20T22:22:36.961Z,43.40
2019-02-20T22:25:29.776Z,43.40
2019-02-20T22:28:01.577Z,43.40
2019-02-20T22:30:45.012Z,43.50
2019-02-20T22:33:25.402Z,43.40
2019-02-20T22:35:59.542Z,43.40
2019-02-20T22:38:36.968Z,43.50
2019-02-20T22:41:20.550Z,43.50
2019-02-20T22:44:03.824Z,43.50
2019-02-20T22:46:38.256Z,43.50
2019-02-20T22:49:29.205Z,43.50
2019-02-20T22:52:12.643Z,43.50
2019-02-20T22:54:53.205Z,43.50
2019-02-20T22:57:37.143Z,43.50
2019-02-20T23:00:52.315Z,43.50
2019-02-20T23:03:58.680Z,43.40
2019-02-20T23:06:53.127Z,42.80
2019-02-20T23:09:47.751Z,43.00
2019-02-20T23:12:37.335Z,43.10
2019-02-20T23:15:06.636Z,43.30
2019-02-20T23:17:35.146Z,43.30
2019-02-20T23:20:03.944Z,43.30
2019-02-20T23:22:32.537Z,43.20
2019-02-20T23:25:01.156Z,43.20
2019-02-20T23:27:29.697Z,43.30
2019-02-20T23:29:58.239Z,44.50
2019-02-20T23:32:26.796Z,43.80
2019-02-20T23:34:57.141Z,43.20
2019-02-20T23:37:28.726Z,43.00
2019-02-20T23:39:57.193Z,43.00
2019-02-20T23:42:25.709Z,43.10
2019-02-20T23:44:54.178Z,43.00
2019-02-20T23:47:22.644Z,42.90
2019-02-20T23:49:51.305Z,43.00
2019-02-20T23:52:19.848Z,42.90
2019-02-20T23:54:48.348Z,42.70
2019-02-20T23:57:19.956Z,42.70
2019-02-20T23:59:48.412Z,42.50
